createdAt,value
2022-11-25T00:00:23.178Z,100322.47
2022-11-25T00:02:51.281Z,100323.44
2022-11-25T00:05:20.675Z,100330.66
2022-11-25T00:07:48.643Z,100336.19
2022-11-25T00:10:16.646Z,100345.06
2022-11-25T00:12:44.510Z,100358.22
2022-11-25T00:15:12.520Z,100348.13
2022-11-25T00:17:40.386Z,100365.78
2022-11-25T00:20:09.448Z,100364.81
2022-11-25T00:22:38.753Z,100370.91
2022-11-25T00:25:07.490Z,100387.72
2022-11-25T00:27:35.398Z,100388.75
2022-11-25T00:30:03.308Z,100396.00
2022-11-25T00:32:31.174Z,100393.41
2022-11-25T00:34:59.019Z,100398.09
2022-11-25T00:37:26.969Z,100404.47
2022-11-25T00:39:56.259Z,100399.28
2022-11-25T00:42:41.659Z,100400.31
2022-11-25T00:45:10.435Z,100427.13
2022-11-25T00:47:38.287Z,100444.03
2022-11-25T00:50:07.504Z,100441.34
2022-11-25T00:52:37.093Z,100439.53
2022-11-25T00:55:07.045Z,100455.47
2022-11-25T00:57:34.947Z,100456.09
2022-11-25T01:00:02.810Z,100448.84
2022-11-25T01:02:30.765Z,100453.91
2022-11-25T01:04:58.847Z,100466.22
2022-11-25T01:07:26.941Z,100474.22
2022-11-25T01:09:54.814Z,100479.56
2022-11-25T01:12:24.109Z,100478.44
2022-11-25T01:14:52.044Z,100480.72
2022-11-25T01:17:19.943Z,100492.94
2022-11-25T01:19:48.972Z,100488.28
2022-11-25T01:22:16.883Z,100489.97
2022-11-25T01:24:44.711Z,100493.63
2022-11-25T01:27:12.580Z,100507.03
2022-11-25T01:29:43.040Z,100500.00
2022-11-25T01:32:10.867Z,100500.88
2022-11-25T01:34:39.029Z,100516.03
2022-11-25T01:37:06.939Z,100519.63
2022-11-25T01:39:34.794Z,100519.75
2022-11-25T01:42:02.711Z,100525.34
2022-11-25T01:44:30.759Z,100532.72
2022-11-25T01:47:02.296Z,100538.31
2022-11-25T01:49:36.372Z,100547.38
2022-11-25T01:52:07.735Z,100563.66
2022-11-25T01:54:37.850Z,100557.34
2022-11-25T01:57:07.778Z,100555.47
2022-11-25T01:59:36.358Z,100565.09
2022-11-25T02:02:05.720Z,100577.25
2022-11-25T02:04:35.158Z,100582.22
2022-11-25T02:07:05.370Z,100591.00
2022-11-25T02:09:33.295Z,100590.06
2022-11-25T02:12:01.153Z,100590.13
2022-11-25T02:14:29.059Z,100605.22
2022-11-25T02:16:56.923Z,100616.06
2022-11-25T02:19:37.869Z,100616.63
2022-11-25T02:22:06.050Z,100626.03
2022-11-25T02:24:36.126Z,100618.78
2022-11-25T02:27:05.468Z,100633.97
2022-11-25T02:29:33.521Z,100628.94
2022-11-25T02:32:01.401Z,100649.53
2022-11-25T02:34:29.299Z,100649.63
2022-11-25T02:36:57.139Z,100657.63
2022-11-25T02:39:25.042Z,100665.66
2022-11-25T02:41:54.149Z,100665.47
2022-11-25T02:44:23.454Z,100685.78
2022-11-25T02:46:51.340Z,100679.94
2022-11-25T02:49:19.202Z,100682.31
2022-11-25T02:51:47.194Z,100700.16
2022-11-25T02:54:15.586Z,100696.34
2022-11-25T02:56:43.446Z,100709.28
2022-11-25T02:59:11.391Z,100716.75
2022-11-25T03:01:40.719Z,100715.34
2022-11-25T03:04:08.672Z,100717.50
2022-11-25T03:06:36.541Z,100723.84
2022-11-25T03:09:04.436Z,100724.72
2022-11-25T03:11:49.766Z,100720.94
2022-11-25T03:14:18.003Z,100756.16
2022-11-25T03:16:47.444Z,100750.44
2022-11-25T03:19:15.478Z,100755.41
2022-11-25T03:21:43.340Z,100755.28
2022-11-25T03:24:11.385Z,100766.38
2022-11-25T03:26:39.323Z,100778.25
2022-11-25T03:29:07.652Z,100773.22
2022-11-25T03:31:35.559Z,100781.41
2022-11-25T03:34:04.878Z,100783.38
2022-11-25T03:36:32.755Z,100785.06
2022-11-25T03:39:00.660Z,100786.66
2022-11-25T03:41:28.554Z,100790.72
2022-11-25T03:43:56.512Z,100786.59
2022-11-25T03:46:24.541Z,100787.97
2022-11-25T03:48:52.430Z,100792.94
2022-11-25T03:51:21.667Z,100797.16
2022-11-25T03:53:49.584Z,100806.66
2022-11-25T03:56:17.475Z,100809.03
2022-11-25T03:58:45.335Z,100815.00
2022-11-25T04:01:13.266Z,100823.69
2022-11-25T04:03:41.208Z,100832.13
2022-11-25T04:06:09.198Z,100837.22
2022-11-25T04:08:38.443Z,100856.41
2022-11-25T04:11:06.560Z,100831.06
2022-11-25T04:13:33.414Z,100861.03
2022-11-25T04:16:01.326Z,100862.94
2022-11-25T04:18:29.227Z,100862.16
2022-11-25T04:20:57.120Z,100863.25
2022-11-25T04:23:25.100Z,100873.91
2022-11-25T04:25:54.327Z,100871.38
2022-11-25T04:28:23.574Z,100881.00
2022-11-25T04:30:51.546Z,100876.56
2022-11-25T04:33:19.598Z,100883.47
2022-11-25T04:35:48.207Z,100898.31
2022-11-25T04:38:16.130Z,100895.28
2022-11-25T04:40:44.028Z,100907.38
2022-11-25T04:43:13.279Z,100906.16
2022-11-25T04:48:29.035Z,100900.09
2022-11-25T04:50:56.903Z,100912.19
2022-11-25T04:53:24.780Z,100907.56
2022-11-25T04:55:52.682Z,100915.44
2022-11-25T04:58:36.057Z,100917.97
2022-11-25T05:01:04.023Z,100926.69
2022-11-25T05:03:31.955Z,100919.34
2022-11-25T05:05:59.866Z,100931.59
2022-11-25T05:08:27.748Z,100941.25
2022-11-25T05:10:55.662Z,100963.28
2022-11-25T05:13:24.937Z,100952.47
2022-11-25T05:15:52.908Z,100963.91
2022-11-25T05:18:20.836Z,100979.84
2022-11-25T05:20:48.756Z,100978.03
2022-11-25T05:23:16.692Z,100985.81
2022-11-25T05:25:44.547Z,100989.13
2022-11-25T05:28:12.453Z,100969.72
2022-11-25T05:30:42.580Z,100992.94
2022-11-25T05:33:10.496Z,101001.59
2022-11-25T05:35:38.429Z,101006.75
2022-11-25T05:38:06.334Z,101000.41
2022-11-25T05:40:34.228Z,101002.16
2022-11-25T05:43:03.016Z,101005.75
2022-11-25T05:45:30.924Z,101007.47
2022-11-25T05:48:00.167Z,101043.59
2022-11-25T05:50:28.182Z,101037.88
2022-11-25T05:52:56.085Z,101044.31
2022-11-25T05:55:23.999Z,101071.25
2022-11-25T05:57:51.978Z,101061.94
2022-11-25T06:00:26.282Z,101066.91
2022-11-25T06:02:54.891Z,101067.16
2022-11-25T06:05:24.236Z,101066.81
2022-11-25T06:07:52.213Z,101067.25
2022-11-25T06:10:20.388Z,101071.00
2022-11-25T06:12:48.818Z,101069.38
2022-11-25T06:15:16.685Z,101084.41
2022-11-25T06:17:44.531Z,101093.16
2022-11-25T06:20:12.713Z,101085.00
2022-11-25T06:22:41.942Z,101104.34
2022-11-25T06:25:10.433Z,101104.22
2022-11-25T06:28:04.512Z,101113.72
2022-11-25T06:30:26.282Z,101112.75
2022-11-25T06:32:55.435Z,101118.75
2022-11-25T06:35:23.324Z,101129.13
2022-11-25T06:37:52.669Z,101129.84
2022-11-25T06:40:20.593Z,101133.97
2022-11-25T06:42:48.487Z,101145.84
2022-11-25T06:45:16.547Z,101149.00
2022-11-25T06:47:44.415Z,101154.81
2022-11-25T06:50:12.402Z,101153.38
2022-11-25T06:52:40.298Z,101176.94
2022-11-25T06:55:10.272Z,101176.19
2022-11-25T06:57:38.230Z,101185.72
2022-11-25T07:00:07.855Z,101188.06
2022-11-25T07:02:40.883Z,101194.59
2022-11-25T07:05:10.968Z,101202.19
2022-11-25T07:07:38.942Z,101208.72
2022-11-25T07:10:09.745Z,101214.22
2022-11-25T07:12:37.635Z,101231.22
2022-11-25T07:15:06.498Z,101239.00
2022-11-25T07:17:34.425Z,101243.25
2022-11-25T07:20:02.294Z,101240.34
2022-11-25T07:22:30.200Z,101245.41
2022-11-25T07:24:58.095Z,101253.91
2022-11-25T07:27:27.668Z,101267.63
2022-11-25T07:30:29.105Z,101268.81
2022-11-25T07:32:43.747Z,101267.22
2022-11-25T07:35:11.620Z,101268.09
2022-11-25T07:37:39.515Z,101284.63
2022-11-25T07:40:08.608Z,101292.31
2022-11-25T07:42:37.876Z,101303.59
2022-11-25T07:45:06.565Z,101314.63
2022-11-25T07:47:35.097Z,101322.97
2022-11-25T07:50:02.985Z,101335.47
2022-11-25T07:52:30.839Z,101341.53
2022-11-25T07:54:58.783Z,101336.22
2022-11-25T07:57:26.720Z,101336.81
2022-11-25T07:59:55.975Z,101347.03
2022-11-25T08:02:23.920Z,101350.13
2022-11-25T08:04:52.159Z,101359.28
2022-11-25T08:07:20.086Z,101360.66
2022-11-25T08:09:47.953Z,101357.69
2022-11-25T08:12:15.907Z,101375.09
2022-11-25T08:14:43.794Z,101371.34
2022-11-25T08:17:13.074Z,101379.94
2022-11-25T08:19:41.403Z,101377.16
2022-11-25T08:22:09.281Z,101384.03
2022-11-25T08:24:37.132Z,101393.44
2022-11-25T08:27:05.178Z,101399.53
2022-11-25T08:29:33.151Z,101395.72
2022-11-25T08:32:01.030Z,101401.66
2022-11-25T08:34:30.296Z,101391.56
2022-11-25T08:36:58.236Z,101393.13
2022-11-25T08:39:51.059Z,101408.94
2022-11-25T08:42:14.032Z,101415.00
2022-11-25T08:44:42.140Z,101409.72
2022-11-25T08:47:10.738Z,101413.88
2022-11-25T08:49:41.716Z,101411.94
2022-11-25T08:52:10.279Z,101417.06
2022-11-25T08:54:38.381Z,101423.16
2022-11-25T08:57:06.442Z,101424.88
2022-11-25T08:59:34.528Z,101429.88
2022-11-25T09:02:02.688Z,101427.94
2022-11-25T09:04:30.609Z,101433.94
2022-11-25T09:06:59.880Z,101445.50
2022-11-25T09:09:27.973Z,101456.81
2022-11-25T09:11:55.981Z,101463.75
2022-11-25T09:14:23.920Z,101469.75
2022-11-25T09:16:51.919Z,101483.84
2022-11-25T09:19:20.912Z,101473.88
2022-11-25T09:21:48.809Z,101478.16
2022-11-25T09:24:18.099Z,101478.78
2022-11-25T09:26:46.027Z,101485.72
2022-11-25T09:29:14.227Z,101495.38
2022-11-25T09:31:42.298Z,101507.56
2022-11-25T09:34:10.750Z,101512.72
2022-11-25T09:36:38.589Z,101518.72
2022-11-25T09:39:06.610Z,101534.38
2022-11-25T09:42:01.917Z,101541.19
2022-11-25T09:44:55.932Z,101540.78
2022-11-25T09:47:25.684Z,101561.44
2022-11-25T09:50:01.496Z,101564.22
2022-11-25T09:52:33.605Z,101574.94
2022-11-25T09:55:05.720Z,101575.00
2022-11-25T09:57:43.809Z,101576.94
2022-11-25T10:00:13.735Z,101585.16
2022-11-25T10:02:42.997Z,101595.63
2022-11-25T10:05:14.090Z,101591.38
2022-11-25T10:07:43.933Z,101596.38
2022-11-25T10:10:17.067Z,101614.00
2022-11-25T10:12:46.357Z,101614.50
2022-11-25T10:15:16.862Z,101607.56
2022-11-25T10:17:46.657Z,101619.66
2022-11-25T10:20:16.332Z,101617.88
2022-11-25T10:22:45.107Z,101629.19
2022-11-25T10:25:15.492Z,101630.81
2022-11-25T10:27:44.951Z,101629.94
2022-11-25T10:30:18.200Z,101642.22
2022-11-25T10:32:48.307Z,101638.97
2022-11-25T10:35:21.823Z,101641.53
2022-11-25T10:37:49.915Z,101649.22
2022-11-25T10:40:18.088Z,101650.66
2022-11-25T10:42:46.064Z,101655.13
2022-11-25T10:45:15.493Z,101660.22
2022-11-25T10:48:06.264Z,101665.00
2022-11-25T10:50:35.351Z,101672.50
2022-11-25T10:53:05.023Z,101670.94
2022-11-25T10:55:33.975Z,101680.88
2022-11-25T10:58:02.092Z,101678.16
2022-11-25T11:00:33.163Z,101689.16
2022-11-25T11:03:02.453Z,101685.41
2022-11-25T11:05:31.307Z,101696.00
2022-11-25T11:08:10.429Z,101695.06
2022-11-25T11:10:38.325Z,101698.91
2022-11-25T11:13:06.971Z,101693.41
2022-11-25T11:15:47.120Z,101697.56
2022-11-25T11:18:21.923Z,101701.75
2022-11-25T11:20:50.702Z,101710.91
2022-11-25T11:23:18.870Z,101719.59
2022-11-25T11:25:56.682Z,101719.41
2022-11-25T11:28:30.826Z,101724.69
2022-11-25T11:31:01.534Z,101719.31
2022-11-25T11:33:37.091Z,101729.44
2022-11-25T11:36:12.738Z,101738.53
2022-11-25T11:38:44.505Z,101731.28
2022-11-25T11:41:16.119Z,101731.03
2022-11-25T11:43:56.892Z,101742.19
2022-11-25T11:46:33.915Z,101737.19
2022-11-25T11:49:07.170Z,101747.16
2022-11-25T11:51:37.938Z,101738.84
2022-11-25T11:54:08.154Z,101750.63
2022-11-25T11:56:39.192Z,101751.72
2022-11-25T11:59:22.791Z,101750.97
2022-11-25T12:02:04.135Z,101751.56
2022-11-25T12:04:35.045Z,101751.75
2022-11-25T12:07:06.213Z,101744.75
2022-11-25T12:09:35.456Z,101735.88
2022-11-25T12:12:05.580Z,101743.31
2022-11-25T12:14:36.920Z,101739.16
2022-11-25T12:17:08.642Z,101739.13
2022-11-25T12:19:40.241Z,101738.91
2022-11-25T12:22:09.810Z,101737.44
2022-11-25T12:24:41.555Z,101744.41
2022-11-25T12:27:11.689Z,101754.09
2022-11-25T12:29:40.996Z,101746.47
2022-11-25T12:32:24.109Z,101763.22
2022-11-25T12:34:55.426Z,101764.44
2022-11-25T12:37:28.602Z,101756.22
2022-11-25T12:39:58.495Z,101764.25
2022-11-25T12:42:26.415Z,101769.53
2022-11-25T12:45:01.949Z,101773.47
2022-11-25T12:47:31.262Z,101778.72
2022-11-25T12:49:59.289Z,101772.03
2022-11-25T12:52:52.775Z,101784.78
2022-11-25T12:55:21.467Z,101788.44
2022-11-25T12:58:10.500Z,101786.53
2022-11-25T13:01:09.618Z,101782.50
2022-11-25T13:04:01.750Z,101789.47
2022-11-25T13:06:59.315Z,101785.50
2022-11-25T13:09:42.062Z,101789.47
2022-11-25T13:12:15.393Z,101785.38
2022-11-25T13:15:05.807Z,101790.09
2022-11-25T13:17:35.300Z,101800.88
2022-11-25T13:20:49.041Z,101792.53
2022-11-25T13:23:31.948Z,101798.19
2022-11-25T13:26:48.799Z,101815.47
2022-11-25T13:29:59.133Z,101809.22
2022-11-25T13:32:40.618Z,101815.44
2022-11-25T13:35:36.664Z,101820.13
2022-11-25T13:38:49.059Z,101820.44
2022-11-25T13:41:26.247Z,101819.75
2022-11-25T13:44:01.611Z,101824.84
2022-11-25T13:46:39.639Z,101826.75
2022-11-25T13:49:08.127Z,101830.94
2022-11-25T13:51:36.016Z,101828.38
2022-11-25T13:54:05.753Z,101837.88
2022-11-25T13:56:36.102Z,101835.06
2022-11-25T13:59:37.492Z,101848.91
2022-11-25T14:02:45.205Z,101847.28
2022-11-25T14:05:33.502Z,101854.59
2022-11-25T14:08:08.076Z,101853.25
2022-11-25T14:10:45.715Z,101859.78
2022-11-25T14:13:27.743Z,101860.94
2022-11-25T14:16:07.196Z,101861.59
2022-11-25T14:19:21.771Z,101867.72
2022-11-25T14:21:45.608Z,101872.94
2022-11-25T14:24:21.072Z,101875.22
2022-11-25T14:26:52.569Z,101885.03
2022-11-25T14:29:24.501Z,101877.59
2022-11-25T14:31:55.862Z,101885.03
2022-11-25T14:34:25.676Z,101880.03
2022-11-25T14:36:55.242Z,101878.75
2022-11-25T14:39:25.821Z,101886.22
2022-11-25T14:41:57.550Z,101887.25
2022-11-25T14:44:28.257Z,101904.50
2022-11-25T14:46:56.885Z,101898.56
2022-11-25T14:49:46.642Z,101903.28
2022-11-25T14:52:17.677Z,101908.88
2022-11-25T14:54:45.651Z,101920.97
2022-11-25T14:57:13.577Z,101916.66
2022-11-25T14:59:45.615Z,101913.06
2022-11-25T15:02:24.660Z,101907.38
2022-11-25T15:04:52.552Z,101922.16
2022-11-25T15:07:26.309Z,101932.19
2022-11-25T15:09:57.535Z,101933.47
2022-11-25T15:12:25.430Z,101933.53
2022-11-25T15:14:55.242Z,101941.69
2022-11-25T15:17:26.903Z,101930.25
2022-11-25T15:19:55.115Z,101940.63
2022-11-25T15:22:24.458Z,101944.91
2022-11-25T15:24:55.554Z,101946.66
2022-11-25T15:27:26.213Z,101945.75
2022-11-25T15:29:56.721Z,101957.06
2022-11-25T15:32:26.392Z,101961.56
2022-11-25T15:34:54.634Z,101958.09
2022-11-25T15:37:24.050Z,101977.97
2022-11-25T15:39:52.040Z,101993.53
2022-11-25T15:42:21.317Z,101991.56
2022-11-25T15:44:50.884Z,101996.81
2022-11-25T15:47:24.366Z,101998.56
2022-11-25T15:49:58.175Z,102002.03
2022-11-25T15:52:26.138Z,102011.41
2022-11-25T15:54:54.023Z,102011.63
2022-11-25T15:57:24.105Z,102013.66
2022-11-25T16:00:03.659Z,102018.34
2022-11-25T16:02:34.899Z,102018.41
2022-11-25T16:05:29.320Z,102029.94
2022-11-25T16:08:19.001Z,102033.41
2022-11-25T16:10:52.017Z,102035.09
2022-11-25T16:13:29.201Z,102044.09
2022-11-25T16:15:58.225Z,102053.19
2022-11-25T16:18:40.428Z,102042.84
2022-11-25T16:21:09.800Z,102052.94
2022-11-25T16:23:38.791Z,102050.59
2022-11-25T16:26:08.101Z,102049.00
2022-11-25T16:28:35.946Z,102049.28
2022-11-25T16:31:03.973Z,102047.63
2022-11-25T16:33:33.217Z,102046.78
2022-11-25T16:36:03.237Z,102047.78
2022-11-25T16:38:34.537Z,102046.91
2022-11-25T16:41:02.426Z,102056.66
2022-11-25T16:43:30.303Z,102053.88
2022-11-25T16:45:58.888Z,102058.13
2022-11-25T16:48:26.906Z,102071.38
2022-11-25T16:50:56.199Z,102063.59
2022-11-25T16:53:24.174Z,102068.19
2022-11-25T16:55:52.068Z,102072.78
2022-11-25T16:58:20.848Z,102073.91
2022-11-25T17:00:55.284Z,102083.09
2022-11-25T17:03:26.127Z,102075.38
2022-11-25T17:05:55.186Z,102086.25
2022-11-25T17:08:24.473Z,102097.97
2022-11-25T17:10:52.421Z,102105.25
2022-11-25T17:13:21.844Z,102105.28
2022-11-25T17:15:50.001Z,102101.72
2022-11-25T17:18:19.229Z,102107.91
2022-11-25T17:20:47.169Z,102104.41
2022-11-25T17:23:16.387Z,102121.34
2022-11-25T17:25:47.122Z,102114.47
2022-11-25T17:28:16.120Z,102119.72
2022-11-25T17:30:44.210Z,102116.25
2022-11-25T17:33:14.581Z,102127.00
2022-11-25T17:35:42.486Z,102131.56
2022-11-25T17:38:13.178Z,102137.84
2022-11-25T17:40:42.801Z,102144.19
2022-11-25T17:43:14.318Z,102145.19
2022-11-25T17:45:42.345Z,102147.03
2022-11-25T17:48:11.615Z,102160.44
2022-11-25T17:50:39.744Z,102159.69
2022-11-25T17:53:07.682Z,102163.34
2022-11-25T17:55:36.346Z,102162.47
2022-11-25T17:58:04.283Z,102164.28
2022-11-25T18:00:34.348Z,102151.34
2022-11-25T18:03:02.453Z,102169.78
2022-11-25T18:05:30.471Z,102172.56
2022-11-25T18:07:58.456Z,102175.34
2022-11-25T18:10:27.538Z,102191.47
2022-11-25T18:12:56.128Z,102196.09
2022-11-25T18:15:25.130Z,102195.25
2022-11-25T18:17:57.224Z,102205.03
2022-11-25T18:20:26.239Z,102212.19
2022-11-25T18:22:54.202Z,102214.84
2022-11-25T18:25:23.586Z,102216.50
2022-11-25T18:27:54.142Z,102226.16
2022-11-25T18:30:24.104Z,102217.09
2022-11-25T18:32:52.026Z,102211.53
2022-11-25T18:35:22.473Z,102209.56
2022-11-25T18:37:51.070Z,102212.00
2022-11-25T18:40:19.443Z,102205.75
2022-11-25T18:42:49.607Z,102207.38
2022-11-25T18:45:19.416Z,102211.69
2022-11-25T18:47:47.874Z,102211.63
2022-11-25T18:50:18.015Z,102215.13
2022-11-25T18:52:47.367Z,102224.00
2022-11-25T18:55:16.814Z,102229.28
2022-11-25T18:57:45.797Z,102230.16
2022-11-25T19:00:31.727Z,102231.00
2022-11-25T19:03:01.224Z,102229.19
2022-11-25T19:05:31.570Z,102226.56
2022-11-25T19:08:01.123Z,102224.84
2022-11-25T19:10:31.366Z,102221.22
2022-11-25T19:13:02.405Z,102226.66
2022-11-25T19:15:31.404Z,102232.06
2022-11-25T19:18:01.083Z,102225.94
2022-11-25T19:20:30.384Z,102233.16
2022-11-25T19:23:01.324Z,102233.19
2022-11-25T19:25:29.738Z,102233.31
2022-11-25T19:27:58.942Z,102244.94
2022-11-25T19:30:27.964Z,102248.59
2022-11-25T19:32:56.676Z,102251.25
2022-11-25T19:35:26.787Z,102254.81
2022-11-25T19:37:54.691Z,102253.03
2022-11-25T19:40:25.251Z,102255.66
2022-11-25T19:42:53.199Z,102254.75
2022-11-25T19:45:21.361Z,102259.03
2022-11-25T19:47:50.849Z,102256.28
2022-11-25T19:50:21.681Z,102254.41
2022-11-25T19:52:49.941Z,102262.25
2022-11-25T19:55:18.956Z,102265.75
2022-11-25T19:57:48.465Z,102254.28
2022-11-25T20:00:17.771Z,102265.63
2022-11-25T20:02:45.938Z,102262.91
2022-11-25T20:05:17.087Z,102256.66
2022-11-25T20:07:45.178Z,102262.81
2022-11-25T20:10:17.482Z,102266.25
2022-11-25T20:12:45.464Z,102266.19
2022-11-25T20:15:14.728Z,102253.72
2022-11-25T20:17:44.497Z,102269.59
2022-11-25T20:20:15.603Z,102274.97
2022-11-25T20:22:45.036Z,102273.28
2022-11-25T20:25:12.991Z,102273.41
2022-11-25T20:27:41.560Z,102267.16
2022-11-25T20:30:17.487Z,102276.03
2022-11-25T20:32:45.427Z,102270.78
2022-11-25T20:35:13.443Z,102275.31
2022-11-25T20:37:51.107Z,102277.19
2022-11-25T20:40:20.957Z,102282.53
2022-11-25T20:42:49.772Z,102279.03
2022-11-25T20:45:19.811Z,102268.34
2022-11-25T20:47:49.082Z,102265.69
2022-11-25T20:50:17.145Z,102267.53
2022-11-25T20:52:45.050Z,102280.84
2022-11-25T20:55:18.523Z,102286.19
2022-11-25T20:57:46.449Z,102291.47
2022-11-25T21:00:20.220Z,102289.56
2022-11-25T21:02:48.821Z,102292.25
2022-11-25T21:05:17.047Z,102301.13
2022-11-25T21:07:44.976Z,102310.91
2022-11-25T21:10:22.015Z,102322.41
2022-11-25T21:12:49.945Z,102328.63
2022-11-25T21:15:21.223Z,102341.06
2022-11-25T21:17:49.579Z,102331.28
2022-11-25T21:20:18.056Z,102325.88
2022-11-25T21:22:47.245Z,102332.06
2022-11-25T21:25:16.284Z,102331.19
2022-11-25T21:27:44.291Z,102310.75
2022-11-25T21:30:20.538Z,102335.47
2022-11-25T21:32:48.571Z,102342.56
2022-11-25T21:35:16.670Z,102344.34
2022-11-25T21:37:44.788Z,102351.38
2022-11-25T21:40:22.712Z,102345.16
2022-11-25T21:42:50.599Z,102352.22
2022-11-25T21:45:19.878Z,102349.53
2022-11-25T21:47:47.803Z,102353.97
2022-11-25T21:50:17.041Z,102353.94
2022-11-25T21:52:44.948Z,102361.09
2022-11-25T21:55:13.291Z,102362.00
2022-11-25T21:57:41.326Z,102353.97
2022-11-25T22:00:21.251Z,102352.19
2022-11-25T22:02:49.793Z,102360.28
2022-11-25T22:05:18.847Z,102361.22
2022-11-25T22:07:46.860Z,102363.00
2022-11-25T22:10:16.433Z,102363.88
2022-11-25T22:12:45.165Z,102359.44
2022-11-25T22:15:15.505Z,102358.63
2022-11-25T22:17:45.037Z,102363.06
2022-11-25T22:20:25.774Z,102356.97
2022-11-25T22:22:53.748Z,102356.13
2022-11-25T22:25:21.682Z,102358.06
2022-11-25T22:27:51.080Z,102351.28
2022-11-25T22:30:24.589Z,102357.47
2022-11-25T22:32:59.569Z,102366.44
2022-11-25T22:35:27.461Z,102353.31
2022-11-25T22:37:55.719Z,102354.31
2022-11-25T22:40:23.721Z,102356.25
2022-11-25T22:42:51.740Z,102339.44
2022-11-25T22:45:24.696Z,102350.22
2022-11-25T22:47:52.660Z,102350.31
2022-11-25T22:50:24.352Z,102337.09
2022-11-25T22:52:52.317Z,102338.94
2022-11-25T22:55:21.597Z,102333.69
2022-11-25T22:57:49.727Z,102341.72
2022-11-25T23:00:19.287Z,102337.31
2022-11-25T23:02:47.452Z,102328.53
2022-11-25T23:05:16.784Z,102333.81
2022-11-25T23:07:46.206Z,102332.09
2022-11-25T23:10:18.029Z,102331.22
2022-11-25T23:12:45.964Z,102324.22
2022-11-25T23:15:15.209Z,102311.84
2022-11-25T23:17:45.705Z,102320.72
2022-11-25T23:20:16.819Z,102319.88
2022-11-25T23:22:46.411Z,102321.75
2022-11-25T23:25:15.887Z,102328.91
2022-11-25T23:27:44.048Z,102325.41
2022-11-25T23:30:15.680Z,102329.94
2022-11-25T23:32:43.662Z,102325.53
2022-11-25T23:35:15.422Z,102334.47
2022-11-25T23:37:45.023Z,102340.78
2022-11-25T23:40:20.876Z,102353.22
2022-11-25T23:42:48.798Z,102351.44
2022-11-25T23:45:17.522Z,102345.25
2022-11-25T23:47:46.103Z,102344.34
2022-11-25T23:50:24.767Z,102346.16
2022-11-25T23:52:55.720Z,102348.81
2022-11-25T23:55:26.207Z,102344.41
2022-11-25T23:57:54.110Z,102347.06
